Flight Track Log - Related Links

Times and Time Zones

All times are in EDT time to prevent confusion due to time zone crossing. See the UPS1125 flight status page for this flight to view local times or setup timezone preferences in your user account.

Time Position Orientation Groundspeed Altitude Reporting Facility
EDT Latitude Longitude Course Direction KTS MPH feet Rate Location/Type
Thu 10:56:47 PM 40.5602 -73.7427 109° East 305 351 10,800  Level FlightAware ADS-B (KSNC)
Thu 10:57:03 PM 40.5529 -73.7146 109° East 310 357 11,600 3,000 Climbing FlightAware ADS-B (KWWD)
Thu 10:57:13 PM 40.5483 -73.6967 108° East 313 360 12,100 2,640 Climbing FlightAware ADS-B (KWWD)
Thu 10:57:28 PM 40.5434 -73.6713 96° East 320 368 12,700 2,727 Climbing FlightAware ADS-B (KSNC)
Thu 10:57:57 PM 40.5568 -73.6149 89° East 321 369 14,100 2,914 Climbing FlightAware ADS-B (KWWD)
Thu 10:58:03 PM 40.5621 -73.6054 53° Northeast 322 371 14,400 2,757 Climbing FlightAware ADS-B (KPHL)
Thu 10:58:34 PM 40.5882 -73.5605 48° Northeast 329 379 15,800 2,533 Climbing FlightAware ADS-B (KPHL)
Thu 10:58:48 PM 40.6074 -73.5406 27° Northeast 328 377 16,300 1,680 Climbing FlightAware ADS-B (KSNC)
Thu 10:58:59 PM 40.6201 -73.5338 14° North 332 382 16,500 947 Climbing FlightAware ADS-B (KSNC)
Thu 10:59:07 PM 40.6355 -73.5304 46° Northeast 329 379 16,600 900 Climbing FlightAware ADS-B (KWWD)
Thu 10:59:19 PM 40.6541 -73.5310 355° North 343 395 16,800 900 Climbing FlightAware ADS-B (KSNC)
Thu 10:59:27 PM 40.6658 -73.5329 352° North 348 400 16,900 621 Climbing FlightAware ADS-B (KSNC)
Thu 10:59:48 PM 40.6996 -73.5457 338° Northwest 353 406 17,100 235 Climbing FlightAware ADS-B (KSNC)
Thu 11:00:18 PM 40.7459 -73.5713 337° Northwest 373 429 17,100  Level FlightAware ADS-B (KSNC)
Thu 11:00:59 PM 40.8121 -73.6085 337° Northwest 379 436 17,100  Level FlightAware ADS-B (KSNC)
Thu 11:01:29 PM 40.8573 -73.6336 337° Northwest 383 441 17,100 1,378 Level FlightAware ADS-B (KSNC)
Thu 11:02:13 PM 40.9325 -73.6756 337° Northwest 384 442 18,800 2,222 Climbing FlightAware ADS-B (KSNC)
Thu 11:02:50 PM 40.9908 -73.7096 330° Northwest 384 442 20,100 2,211 Climbing FlightAware ADS-B (KSNC)
Thu 11:03:10 PM 41.0191 -73.7406 311° West 380 437 20,900 2,154 Climbing FlightAware ADS-B (KSNC)
Thu 11:03:29 PM 41.0338 -73.7709 291° West 379 436 21,500 1,714 Climbing FlightAware ADS-B (KSNC)
Thu 11:03:45 PM 41.0429 -73.8155 273° West 383 441 21,900 476 Climbing FlightAware ADS-B (KWWD)
Thu 11:04:32 PM 41.0380 -73.9259 265° West 386 444 22,000 1,000 Climbing FlightAware ADS-B (KWWD)
Thu 11:05:15 PM 41.0314 -74.0280 265° West 391 450 23,400 2,182 Climbing FlightAware ADS-B (KSNC)
Thu 11:05:49 PM 41.0262 -74.1099 265° West 400 460 24,800 2,400 Climbing FlightAware ADS-B (KWWD)
Thu 11:06:30 PM 41.0200 -74.2100 265° West 405 466 26,400 2,260 Climbing FlightAware ADS-B (KWWD)
Thu 11:07:06 PM 41.0142 -74.3005 265° West 412 474 27,700 2,000 Climbing FlightAware ADS-B (KWWD)
Thu 11:07:39 PM 41.0087 -74.3847 265° West 418 481 28,700 1,760 Climbing FlightAware ADS-B (KWWD)
Thu 11:08:21 PM 41.0017 -74.4925 265° West 426 490 29,900 2,074 Climbing FlightAware ADS-B (KPHL)
Thu 11:09:00 PM 40.9953 -74.5909 265° West 417 480 31,500 1,658 Climbing FlightAware ADS-B (KWWD)
Thu 11:09:37 PM 40.9892 -74.6848 265° West 411 473 32,000 395 Climbing FlightAware ADS-B (KPHL)
Thu 11:10:16 PM 40.9827 -74.7824 265° West 410 472 32,000  Level FlightAware ADS-B (KWWD)
Thu 11:10:49 PM 40.9771 -74.8646 265° West 414 476 32,000  Level FlightAware ADS-B (KWWD)
Thu 11:11:08 PM 40.9738 -74.9120 263° West 415 478 32,000  Level FlightAware ADS-B (KWWD)
Thu 11:11:39 PM 40.9618 -74.9892 254° West 415 478 32,000  Level FlightAware ADS-B (KWWD)
Thu 11:12:18 PM 40.9371 -75.0843 251° West 412 474 32,000  Level FlightAware ADS-B (KWWD)
Thu 11:12:53 PM 40.9166 -75.1624 253° West 413 475 32,000  Level FlightAware ADS-B (KPHL)
Thu 11:13:23 PM 40.8998 -75.2400 255° West 413 475 32,000  Level FlightAware ADS-B (KPHL)
Thu 11:13:39 PM 40.8917 -75.2796 256° West 412 474 32,000  Level FlightAware ADS-B (KWWD)
Thu 11:14:09 PM 40.8768 -75.3518 256° West 411 473 32,000  Level FlightAware ADS-B (KWWD)
Thu 11:14:49 PM 40.8559 -75.4493 254° West 411 473 32,000  Level FlightAware ADS-B (KWWD)
Thu 11:15:28 PM 40.8329 -75.5436 253° West 411 473 32,000  Level FlightAware ADS-B (KWWD)
Thu 11:16:09 PM 40.8091 -75.6428 254° West 410 472 32,000  Level FlightAware ADS-B (KWWD)
Thu 11:16:48 PM 40.7870 -75.7357 254° West 408 470 32,000  Level FlightAware ADS-B (KWWD)
Thu 11:17:09 PM 40.7760 -75.7810 253° West 410 472 32,000  Level FlightAware ADS-B
Thu 11:17:19 PM 40.7693 -75.8094 254° West 405 466 32,000  Level FlightAware ADS-B (KWWD)
Thu 11:17:38 PM 40.7600 -75.8490 253° West 406 467 32,000  Level FlightAware ADS-B
Thu 11:17:49 PM 40.7526 -75.8793 254° West 402 463 32,000  Level FlightAware ADS-B (KWWD)
Thu 11:18:29 PM 40.7302 -75.9725 253° West 400 460 32,000  Level FlightAware ADS-B (KWWD)
Thu 11:18:59 PM 40.7130 -76.0437 254° West 401 461 32,000  Level FlightAware ADS-B (KWWD)
Thu 11:19:08 PM 40.7080 -76.0620 253° West 404 465 32,000  Level FlightAware ADS-B
Thu 11:19:38 PM 40.6970 -76.1320 264° West 398 458 32,000  Level FlightAware ADS-B
Thu 11:19:56 PM 40.6960 -76.1790 274° West 401 461 32,000  Level FlightAware ADS-B
Thu 11:20:09 PM 40.6996 -76.2112 279° West 404 465 32,000  Level FlightAware ADS-B (KWWD)
Thu 11:20:26 PM 40.7060 -76.2500 283° West 410 472 32,000  Level FlightAware ADS-B
Thu 11:20:50 PM 40.7166 -76.3110 282° West 412 474 32,000  Level FlightAware ADS-B (KWWD)
Thu 11:20:56 PM 40.7190 -76.3220 284° West 415 478 32,000  Level FlightAware ADS-B
Thu 11:21:32 PM 40.7350 -76.4140 284° West 419 482 32,000  Level FlightAware ADS-B
Thu 11:21:49 PM 40.7424 -76.4586 282° West 416 479 32,000 13,333 Level FlightAware ADS-B (KWWD)
Thu 11:22:08 PM 40.7500 -76.5000 284° West 418 481 40,000  Climbing FlightAware ADS-B
Thu 11:22:28 PM 40.7592 -76.5547 282° West 417 480 32,000 -10,000 Descending FlightAware ADS-B (KWWD)
Thu 11:22:56 PM 40.7710 -76.6210 283° West 419 482 32,000  Level FlightAware ADS-B
Thu 11:23:25 PM 40.7840 -76.6950 283° West 418 481 32,000  Level FlightAware ADS-B
Thu 11:24:23 PM 40.8084 -76.8404 282° West 412 474 32,000  Level FlightAware ADS-B (KWWD)
Thu 11:24:56 PM 40.8227 -76.9239 282° West 412 474 32,000  Level FlightAware ADS-B (KWWD)
Thu 11:25:40 PM 40.8409 -77.0306 282° West 410 472 32,000  Level FlightAware ADS-B (KWWD)
Thu 11:26:19 PM 40.8574 -77.1278 281° West 408 470 32,000  Level FlightAware ADS-B (KWWD)
Thu 11:26:53 PM 40.8715 -77.2114 281° West 406 467 32,000  Level FlightAware ADS-B (KWWD)
Thu 11:28:08 PM 40.9021 -77.3946 281° West 406 467 32,000  Level FlightAware ADS-B (KWWD)
Thu 11:28:42 PM 40.9158 -77.4770 281° West 406 467 32,000  Level FlightAware ADS-B (KWWD)
Thu 11:28:58 PM 40.9215 -77.5117 283° West 408 470 32,000  Level FlightAware ADS-B (CYYZ)
Thu 11:29:19 PM 40.9306 -77.5670 282° West 410 472 32,000  Level FlightAware ADS-B (KWWD)
Thu 11:29:29 PM 40.9341 -77.5886 283° West 411 473 32,000  Level FlightAware ADS-B (CYYZ)
Thu 11:29:59 PM 40.9464 -77.6636 283° West 413 475 32,000  Level FlightAware ADS-B (CYYZ)
Thu 11:30:28 PM 40.9580 -77.7354 283° West 413 475 32,000  Level FlightAware ADS-B (CYYZ)
Thu 11:30:39 PM 40.9627 -77.7641 282° West 413 475 32,000  Level FlightAware ADS-B (KWWD)
Thu 11:30:59 PM 40.9702 -77.8106 282° West 412 474 32,000  Level FlightAware ADS-B (CYYZ)
Thu 11:31:10 PM 40.9751 -77.8412 282° West 412 474 32,000  Level FlightAware ADS-B (KWWD)
Thu 11:31:29 PM 40.9824 -77.8867 282° West 411 473 32,000  Level FlightAware ADS-B (CYYZ)
Thu 11:31:58 PM 40.9940 -77.9602 282° West 411 473 32,000  Level FlightAware ADS-B (CYYZ)
Thu 11:32:09 PM 40.9983 -77.9870 282° West 413 475 32,000  Level FlightAware ADS-B (KWWD)
Thu 11:32:29 PM 41.0058 -78.0345 282° West 412 474 32,000  Level FlightAware ADS-B (CYYZ)
Thu 11:32:58 PM 41.0168 -78.1041 282° West 414 476 32,000  Level FlightAware ADS-B (CYYZ)
Thu 11:33:29 PM 41.0286 -78.1794 282° West 416 479 32,000  Level FlightAware ADS-B (CYYZ)
Thu 11:33:59 PM 41.0411 -78.2590 282° West 416 479 32,000  Level FlightAware ADS-B (CYYZ)
Thu 11:34:29 PM 41.0529 -78.3341 282° West 416 479 32,000  Level FlightAware ADS-B (CYYZ)
Thu 11:34:31 PM 41.0538 -78.3401 282° West 417 480 32,000  Level FlightAware ADS-B (KWWD)
Thu 11:34:59 PM 41.0644 -78.4081 282° West 416 479 32,000  Level FlightAware ADS-B (CYYZ)
Thu 11:35:11 PM 41.0695 -78.4401 282° West 417 480 32,000  Level FlightAware ADS-B (KWWD)
Thu 11:35:29 PM 41.0760 -78.4821 282° West 416 479 32,000  Level FlightAware ADS-B (CYYZ)
Thu 11:35:58 PM 41.0878 -78.5581 282° West 416 479 32,000  Level FlightAware ADS-B (CYYZ)
Thu 11:36:00 PM 41.0887 -78.5641 282° West 417 480 32,000  Level FlightAware ADS-B (KWWD)
Thu 11:36:29 PM 41.0997 -78.6347 282° West 417 480 32,000  Level FlightAware ADS-B (CYYZ)
Thu 11:36:58 PM 41.1111 -78.7091 282° West 418 481 32,000  Level FlightAware ADS-B (CYYZ)
Thu 11:37:21 PM 41.1201 -78.7675 281° West 419 482 32,000  Level FlightAware ADS-B (KWWD)
Thu 11:37:29 PM 41.1227 -78.7846 282° West 419 482 32,000  Level FlightAware ADS-B (CYYZ)
Thu 11:37:51 PM 41.1313 -78.8410 281° West 419 482 32,000  Level FlightAware ADS-B (KWWD)
Thu 11:37:59 PM 41.1342 -78.8602 282° West 419 482 32,000  Level FlightAware ADS-B (CYYZ)
Thu 11:38:29 PM 41.1458 -78.9363 282° West 418 481 32,000  Level FlightAware ADS-B (CYYZ)
Thu 11:38:59 PM 41.1572 -79.0112 282° West 418 481 32,000  Level FlightAware ADS-B (CYYZ)
Thu 11:39:28 PM 41.1685 -79.0860 282° West 418 481 32,000  Level FlightAware ADS-B (CYYZ)
Thu 11:39:58 PM 41.1799 -79.1619 282° West 416 479 32,000  Level FlightAware ADS-B (CYYZ)
Thu 11:40:08 PM 41.1836 -79.1865 281° West 417 480 32,000  Level FlightAware ADS-B (KWWD)
Thu 11:40:29 PM 41.1911 -79.2368 282° West 417 480 32,000  Level FlightAware ADS-B (CYYZ)
Thu 11:40:59 PM 41.2025 -79.3137 282° West 417 480 32,000  Level FlightAware ADS-B (CYYZ)
Thu 11:41:28 PM 41.2135 -79.3882 282° West 417 480 32,000  Level FlightAware ADS-B (CYYZ)
Thu 11:41:59 PM 41.2246 -79.4634 282° West 418 481 32,000  Level FlightAware ADS-B (CYYZ)
Thu 11:42:29 PM 41.2358 -79.5402 281° West 419 482 32,000  Level FlightAware ADS-B (CYYZ)
Thu 11:42:31 PM 41.2369 -79.5473 281° West 420 483 32,000  Level FlightAware ADS-B (KWWD)
Thu 11:42:59 PM 41.2470 -79.6157 281° West 420 483 32,000  Level FlightAware ADS-B (CYYZ)
Thu 11:43:07 PM 41.2493 -79.6314 281° West 421 484 32,000  Level FlightAware ADS-B (EPLB / LUZ)
Thu 11:43:28 PM 41.2582 -79.6923 281° West 420 483 32,000  Level FlightAware ADS-B (CYYZ)
Thu 11:43:49 PM 41.2575 -79.6873 281° West 421 484 32,000  Level FlightAware ADS-B (EPLB / LUZ)
Thu 11:43:58 PM 41.2689 -79.7655 281° West 420 483 32,000  Level FlightAware ADS-B (CYYZ)
Thu 11:44:29 PM 41.2801 -79.8427 281° West 420 483 32,000  Level FlightAware ADS-B (CYYZ)
Thu 11:44:31 PM 41.2813 -79.8513 281° West 421 484 32,000  Level FlightAware ADS-B (EGXP / SQZ)
Thu 11:44:59 PM 41.2914 -79.9214 281° West 420 483 32,000  Level FlightAware ADS-B (CYYZ)
Thu 11:45:29 PM 41.3021 -79.9961 281° West 420 483 32,000  Level FlightAware ADS-B (CYYZ)
Thu 11:45:59 PM 41.3131 -80.0735 281° West 420 483 32,000  Level FlightAware ADS-B (CYYZ)
Thu 11:46:02 PM 41.3096 -80.0485 281° West 420 483 32,000  Level FlightAware ADS-B (EGXP / SQZ)
Thu 11:46:28 PM 41.3237 -80.1492 281° West 420 483 32,000  Level FlightAware ADS-B (CYYZ)
Thu 11:46:34 PM 41.3246 -80.1553 281° West 420 483 32,000  Level FlightAware ADS-B (EGXP / SQZ)
Thu 11:46:59 PM 41.3341 -80.2234 281° West 419 482 32,000  Level FlightAware ADS-B (CYYZ)
Thu 11:47:28 PM 41.3424 -80.2834 281° West 419 482 32,000  Level FlightAware ADS-B (CYYZ)
Thu 11:47:48 PM 41.3518 -80.3521 281° West 419 482 32,000  Level FlightAware ADS-B (EGXP / SQZ)
Thu 11:47:59 PM 41.3553 -80.3770 281° West 419 482 32,000  Level FlightAware ADS-B (CYYZ)
Thu 11:48:28 PM 41.3645 -80.4442 281° West 419 482 32,000  Level FlightAware ADS-B (CYYZ)
Thu 11:48:32 PM 41.3674 -80.4656 280° West 420 483 32,000  Level FlightAware ADS-B (EGXP / SQZ)
Thu 11:48:58 PM 41.3724 -80.5022 281° West 419 482 32,000  Level FlightAware ADS-B (CYYZ)
Thu 11:49:28 PM 41.3855 -80.5986 281° West 420 483 32,000  Level FlightAware ADS-B (CYYZ)
Thu 11:49:47 PM 41.3929 -80.6536 281° West 419 482 32,000  Level FlightAware ADS-B (CYYZ)
Thu 11:50:28 PM 41.4037 -80.7335 281° West 418 481 32,000  Level FlightAware ADS-B (CYYZ)
Thu 11:50:56 PM 41.4166 -80.8312 281° West 417 480 32,000  Level FlightAware ADS-B (CYYZ)
Thu 11:50:57 PM 41.3942 -80.6628 280° West 418 481 32,000  Level FlightAware ADS-B (EPLB / LUZ)
Thu 11:53:04 PM 41.4590 -81.1546 280° West 418 481 32,000  Level FlightAware ADS-B (EPLB / LUZ)
Thu 11:53:51 PM 41.4743 -81.2730 280° West 419 482 32,000  Level FlightAware ADS-B (EPLB / LUZ)
Thu 11:55:24 PM 41.5048 -81.5112 280° West 419 482 32,000  Level FlightAware ADS-B (EPLB / LUZ)
Fri 12:00:14 AM 41.5967 -82.2552 280° West 421 484 32,000  Level FlightAware ADS-B (CYYZ)
Fri 12:00:43 AM 41.6059 -82.3317 280° West 422 486 32,000  Level FlightAware ADS-B (CYYZ)
Fri 12:01:14 AM 41.6154 -82.4115 279° West 423 487 32,000  Level FlightAware ADS-B (CYYZ)
Fri 12:01:42 AM 41.6217 -82.4644 279° West 423 487 32,000  Level FlightAware ADS-B (CYYZ)
Fri 12:02:13 AM 41.6320 -82.5533 279° West 424 488 32,000  Level FlightAware ADS-B (CYYZ)
Fri 12:02:50 AM 41.6425 -82.6400 279° West 425 489 32,000  Level Cleveland Center
Fri 12:03:51 AM 41.6622 -82.8144 279° West 427 491 32,000  Level Cleveland Center
Fri 12:04:51 AM 41.6803 -82.9731 279° West 429 494 32,000  Level Cleveland Center
Fri 12:05:52 AM 41.6989 -83.1322 279° West 430 495 32,000  Level Cleveland Center
Fri 12:06:53 AM 41.7161 -83.2925 278° West 430 495 32,000  Level Cleveland Center
Fri 12:12:14 AM 41.8113 -84.1682 278° West 444 511 32,000  Level FlightAware ADS-B
Fri 12:13:29 AM 41.8323 -84.3718 278° West 444 511 32,000  Level FlightAware ADS-B
Fri 12:13:59 AM 41.8405 -84.4528 278° West 445 512 32,000  Level FlightAware ADS-B
Fri 12:14:29 AM 41.8486 -84.5344 278° West 445 512 32,000  Level FlightAware ADS-B
Fri 12:14:59 AM 41.8570 -84.6189 278° West 446 513 32,000  Level FlightAware ADS-B
Fri 12:15:29 AM 41.8652 -84.7018 278° West 446 513 32,000  Level FlightAware ADS-B
Fri 12:16:09 AM 41.8757 -84.8088 278° West 446 513 32,000  Level FlightAware ADS-B
Fri 12:16:39 AM 41.8840 -84.8935 278° West 446 513 32,000  Level FlightAware ADS-B
Fri 12:17:09 AM 41.8919 -84.9754 277° West 446 513 32,000  Level FlightAware ADS-B
Fri 12:17:39 AM 41.8998 -85.0584 277° West 446 513 32,000  Level FlightAware ADS-B
Fri 12:18:09 AM 41.9076 -85.1406 277° West 445 512 32,000  Level FlightAware ADS-B
Fri 12:18:39 AM 41.9140 -85.2223 272° West 443 510 32,000  Level FlightAware ADS-B
Fri 12:19:09 AM 41.9120 -85.3055 267° West 443 510 32,000  Level FlightAware ADS-B
Fri 12:19:39 AM 41.9086 -85.3863 267° West 444 511 32,000  Level FlightAware ADS-B
Fri 12:20:09 AM 41.9058 -85.4635 267° West 444 511 32,000  Level FlightAware ADS-B
Fri 12:20:39 AM 41.9027 -85.5523 267° West 445 512 32,000  Level FlightAware ADS-B
Fri 12:21:19 AM 41.8992 -85.6645 269° West 445 512 32,000  Level FlightAware ADS-B
Fri 12:21:49 AM 41.9005 -85.7465 273° West 446 513 32,000  Level FlightAware ADS-B
Fri 12:22:20 AM 41.9058 -85.8282 276° West 446 513 32,000  Level FlightAware ADS-B
Fri 12:22:50 AM 41.9141 -85.9146 278° West 446 513 32,000  Level FlightAware ADS-B
Fri 12:23:20 AM 41.9229 -85.9975 278° West 447 514 32,000  Level FlightAware ADS-B
Fri 12:23:59 AM 41.9346 -86.1069 278° West 446 513 32,000  Level FlightAware ADS-B
Fri 12:24:30 AM 41.9434 -86.1903 278° West 445 512 32,000  Level FlightAware ADS-B
Fri 12:25:00 AM 41.9520 -86.2725 278° West 444 511 32,000  Level FlightAware ADS-B
Fri 12:25:30 AM 41.9603 -86.3525 278° West 444 511 32,000  Level FlightAware ADS-B
Fri 12:26:00 AM 41.9690 -86.4362 278° West 444 511 32,000  Level FlightAware ADS-B
Fri 12:26:30 AM 41.9774 -86.5179 278° West 445 512 32,000  Level FlightAware ADS-B
Fri 12:27:00 AM 41.9859 -86.6013 278° West 446 513 32,000 -97 Level FlightAware ADS-B
Fri 12:27:32 AM 41.9921 -86.6635 278° West 447 514 31,900 -1,029 Descending FlightAware ADS-B
Fri 12:28:10 AM 42.0052 -86.7945 278° West 452 520 30,800 -1,676 Descending FlightAware ADS-B
Fri 12:28:40 AM 42.0134 -86.8768 278° West 453 521 30,000 -1,500 Descending FlightAware ADS-B
Fri 12:29:10 AM 42.0218 -86.9618 277° West 448 516 29,300 -1,400 Descending FlightAware ADS-B
Fri 12:29:40 AM 42.0298 -87.0440 277° West 445 512 28,600 -1,000 Descending FlightAware ADS-B
Fri 12:30:10 AM 42.0375 -87.1252 277° West 438 504 28,300 -600 Descending FlightAware ADS-B
Fri 12:30:40 AM 42.0453 -87.2063 277° West 432 497 28,000 -700 Descending FlightAware ADS-B
Fri 12:31:10 AM 42.0529 -87.2861 277° West 424 488 27,600 -1,478 Descending FlightAware ADS-B
Fri 12:31:49 AM 42.0621 -87.3850 277° West 417 480 26,300 -1,652 Descending FlightAware ADS-B
Fri 12:32:19 AM 42.0695 -87.4639 277° West 411 473 25,700 -1,355 Descending FlightAware ADS-B
Fri 12:32:51 AM 42.0770 -87.5437 277° West 402 463 24,900 -1,548 Descending FlightAware ADS-B
Fri 12:33:21 AM 42.0839 -87.6187 277° West 403 464 24,100 -1,031 Descending FlightAware ADS-B
Fri 12:33:55 AM 42.0906 -87.6917 277° West 396 456 23,800 -1,457 Descending FlightAware ADS-B
Fri 12:34:31 AM 42.0995 -87.7904 277° West 389 448 22,400 -2,763 Descending FlightAware ADS-B
Fri 12:35:11 AM 42.1083 -87.8879 277° West 388 447 20,300 -3,042 Descending FlightAware ADS-B
Fri 12:35:42 AM 42.1149 -87.9604 277° West 385 443 18,800 -2,656 Descending FlightAware ADS-B
Fri 12:36:12 AM 42.1212 -88.0305 277° West 374 430 17,600 -2,800 Descending FlightAware ADS-B
Fri 12:36:42 AM 42.1273 -88.0996 277° West 373 429 16,000 -3,086 Descending FlightAware ADS-B
Fri 12:37:22 AM 42.1355 -88.1932 277° West 367 422 14,000 -3,000 Descending FlightAware ADS-B
Fri 12:37:52 AM 42.1414 -88.2614 277° West 368 423 12,500 -2,000 Descending FlightAware ADS-B
Fri 12:38:22 AM 42.1474 -88.3303 277° West 373 429 12,000 -500 Descending FlightAware ADS-B
Fri 12:38:52 AM 42.1535 -88.4005 277° West 370 426 12,000 -1,200 Level FlightAware ADS-B
Fri 12:39:32 AM 42.1610 -88.4892 277° West 360 414 10,600 -1,714 Descending FlightAware ADS-B
Fri 12:40:02 AM 42.1666 -88.5561 276° West 335 386 10,000 -800 Descending FlightAware ADS-B
Fri 12:40:17 AM 42.1691 -88.5856 276° West 314 361 10,000 -200 Level FlightAware ADS-B
Fri 12:40:32 AM 42.1716 -88.6146 277° West 294 338 9,900 -857 Descending FlightAware ADS-B
Fri 12:40:52 AM 42.1745 -88.6478 277° West 270 311 9,500 -1,800 Descending FlightAware ADS-B
Fri 12:41:12 AM 42.1777 -88.6823 279° West 268 308 8,700 -2,757 Descending FlightAware ADS-B
Fri 12:41:29 AM 42.1815 -88.7023 287° West 268 308 7,800 -2,919 Descending FlightAware ADS-B
Fri 12:41:49 AM 42.1926 -88.7387 296° West 272 313 6,900 -2,930 Descending FlightAware ADS-B
Fri 12:42:12 AM 42.2046 -88.7721 295° West 275 316 5,700 -2,857 Descending FlightAware ADS-B
Fri 12:42:31 AM 42.2163 -88.8051 295° West 272 313 4,900 -2,118 Descending FlightAware ADS-B
Fri 12:42:46 AM 42.2242 -88.8273 296° West 262 302 4,500 -1,161 Descending FlightAware ADS-B
Fri 12:43:02 AM 42.2218 -88.8205 296° West 259 298 4,300 -1,116 Descending FlightAware ADS-B
Fri 12:44:12 AM 42.2526 -88.9408 248° West 212 244 2,900 -981 Descending FlightAware ADS-B
Fri 12:44:46 AM 42.2428 -88.9722 248° West 228 262 2,600 -702 Descending Chicago Center
Fri 12:45:46 AM 42.2247 -89.0203 243° Southwest 155 178 1,800 -650 Descending Chicago Center
Fri 12:46:46 AM 42.2108 -89.0592 244° Southwest 137 158 1,300 -446 Descending Chicago Center
Fri 12:47:47 AM 42.1925 -89.1067 242° Southwest 135 155 900 -393 Descending Chicago Center

Login

Don't have an account? Register now (free) for customized features, flight alerts, and more!